Terminal Aerodrome Forecast
Issued by NWS

Home | Current Version | Previous Version | Graphics & Text | Print | Product List | Glossary On
Versions: 1 2 3 4 5 6 7 8 9 10 11 12 13 14 15 16 17 18 19 20 21 22 23
272
FTUS43 KMPX 181139
TAFRWF
TAF
KRWF 181139Z 1812/1912 13012KT P6SM BKN110
     FM181500 18017G25KT P6SM BKN150 WS020/19050KT
     FM182200 26012G20KT P6SM BKN130
     FM190000 30012G19KT P6SM BKN110
     FM190200 33013G20KT P6SM BKN035
     FM190400 36013G20KT P6SM BKN020
     FM190900 01013G20KT 4SM -SN OVC025=

USA.gov is the U.S. government's official web portal to all federal, state and local government web resources and services.